Terminal Aerodrome Forecast
Issued by NWS

Home | Current Version | Previous Version | Text Only | Print | Product List | Glossary On
Versions: 1 2 3 4 5 6 7 8 9 10 11 12 13 14 15 16 17
000
FTUS46 KMTR 302345
TAFSJC
TAF
KSJC 302345Z 3100/3124 31015G20KT P6SM FEW030
     FM310400 30017KT P6SM FEW030
     FM310800 32005KT P6SM SCT015
     FM311600 15003KT P6SM FEW015
     FM311800 32012KT P6SM SKC=

USA.gov is the U.S. government's official web portal to all federal, state and local government web resources and services.